Airport View

Enter AWOS ICAO identifier for current METAR.

ex. KFNL

KLHW 111856Z 05005KT 10SM SCT034 BKN120 BKN250 BKN200 16/08 A3031 RMK AO2A SLP267 T01620079 $

11 Dec 2019 19:04

Other Area AWOS: KSVN - KSAV - KCWV - KJES

TAF AMD KSVN 111800Z 1118/1219 01012KT 9999 BKN075 QNH3028INS BECMG 1203/1204 04015G20KT 9999 SCT030 QNH3035INS BECMG 1216/1217 03020G25KT 9999 BKN020 QNH3040INS TX19/1118Z TN07/1212Z